Terminal Aerodrome Forecast
Issued by NWS Jackson, KY

Home | Current Version | Previous Version | Text Only | Print | Product List | Glossary On
Versions: 1 2 3 4 5 6 7 8 9 10 11 12 13 14 15 16 17 18 19
804
FTUS43 KJKL 150539
TAFJKL
TAF
KJKL 150539Z 1506/1606 VRB03KT P6SM SKC
     FM151000 20005KT P6SM SCT009
     FM151400 21008G18KT P6SM BKN035
     FM151800 21008G18KT P6SM VCSH BKN030
     FM152100 28008G18KT 3SM -SHRA BR OVC015
     FM160000 31007KT P6SM VCSH OVC015=

USA.gov is the U.S. government's official web portal to all federal, state and local government web resources and services.